sensor_id;sensor_type;location;lat;lon;timestamp;pressure;altitude;pressure_sealevel;temperature;humidity
82953;BME280;74888;40.196;44.560;2024-01-06T00:02:02;87158.94;;;7.72;53.78
82953;BME280;74888;40.196;44.560;2024-01-06T00:04:27;87167.97;;;7.71;53.36
82953;BME280;74888;40.196;44.560;2024-01-06T00:06:54;87166.03;;;7.66;53.51
82953;BME280;74888;40.196;44.560;2024-01-06T00:09:19;87163.66;;;7.63;53.03
82953;BME280;74888;40.196;44.560;2024-01-06T00:11:45;87165.53;;;7.57;53.77
82953;BME280;74888;40.196;44.560;2024-01-06T00:14:11;87173.34;;;7.51;53.73
82953;BME280;74888;40.196;44.560;2024-01-06T00:16:36;87167.91;;;7.55;54.13
82953;BME280;74888;40.196;44.560;2024-01-06T00:19:02;87178.81;;;7.59;53.80
82953;BME280;74888;40.196;44.560;2024-01-06T00:21:29;87176.91;;;7.53;53.40
82953;BME280;74888;40.196;44.560;2024-01-06T00:23:55;87167.41;;;7.50;53.82
82953;BME280;74888;40.196;44.560;2024-01-06T00:26:21;87169.75;;;7.43;54.01
82953;BME280;74888;40.196;44.560;2024-01-06T00:28:47;87178.50;;;7.40;54.19
82953;BME280;74888;40.196;44.560;2024-01-06T00:31:16;87192.69;;;7.28;54.18
82953;BME280;74888;40.196;44.560;2024-01-06T00:33:45;87203.53;;;7.21;54.69
82953;BME280;74888;40.196;44.560;2024-01-06T00:36:11;87198.13;;;7.24;54.59
82953;BME280;74888;40.196;44.560;2024-01-06T00:38:36;87191.50;;;7.29;54.59
82953;BME280;74888;40.196;44.560;2024-01-06T00:41:02;87187.47;;;7.28;55.36
82953;BME280;74888;40.196;44.560;2024-01-06T00:43:28;87191.25;;;7.27;55.03
82953;BME280;74888;40.196;44.560;2024-01-06T00:45:53;87204.50;;;7.23;55.60
82953;BME280;74888;40.196;44.560;2024-01-06T00:48:19;87214.19;;;7.17;56.28
82953;BME280;74888;40.196;44.560;2024-01-06T00:50:45;87211.75;;;7.08;56.87
82953;BME280;74888;40.196;44.560;2024-01-06T00:53:11;87212.53;;;7.14;57.25
82953;BME280;74888;40.196;44.560;2024-01-06T00:55:38;87219.00;;;7.24;57.26
82953;BME280;74888;40.196;44.560;2024-01-06T00:58:04;87217.13;;;7.30;56.45
82953;BME280;74888;40.196;44.560;2024-01-06T01:00:30;87227.81;;;7.32;56.56
82953;BME280;74888;40.196;44.560;2024-01-06T01:02:55;87233.28;;;7.34;57.03
82953;BME280;74888;40.196;44.560;2024-01-06T01:05:21;87236.38;;;7.38;56.19
82953;BME280;74888;40.196;44.560;2024-01-06T01:07:46;87231.63;;;7.37;56.22
82953;BME280;74888;40.196;44.560;2024-01-06T01:10:13;87237.59;;;7.37;56.94
82953;BME280;74888;40.196;44.560;2024-01-06T01:12:39;87237.38;;;7.41;56.22
82953;BME280;74888;40.196;44.560;2024-01-06T01:15:05;87244.56;;;7.52;55.89
82953;BME280;74888;40.196;44.560;2024-01-06T01:17:31;87238.44;;;7.60;56.04
82953;BME280;74888;40.196;44.560;2024-01-06T01:19:57;87244.63;;;7.63;56.11
82953;BME280;74888;40.196;44.560;2024-01-06T01:22:23;87251.72;;;7.62;55.65
82953;BME280;74888;40.196;44.560;2024-01-06T01:24:48;87262.63;;;7.61;55.42
82953;BME280;74888;40.196;44.560;2024-01-06T01:27:15;87264.78;;;7.62;55.40
82953;BME280;74888;40.196;44.560;2024-01-06T01:29:41;87265.25;;;7.61;54.92
82953;BME280;74888;40.196;44.560;2024-01-06T01:32:06;87268.13;;;7.63;56.48
82953;BME280;74888;40.196;44.560;2024-01-06T01:34:32;87261.47;;;7.62;55.68
82953;BME280;74888;40.196;44.560;2024-01-06T01:36:57;87275.44;;;7.59;55.86
82953;BME280;74888;40.196;44.560;2024-01-06T01:39:24;87284.50;;;7.63;56.26
82953;BME280;74888;40.196;44.560;2024-01-06T01:41:50;87280.06;;;7.75;56.58
82953;BME280;74888;40.196;44.560;2024-01-06T01:44:15;87286.28;;;7.83;56.79
82953;BME280;74888;40.196;44.560;2024-01-06T01:46:41;87280.38;;;7.88;56.40
82953;BME280;74888;40.196;44.560;2024-01-06T01:49:07;87278.22;;;7.86;56.24
82953;BME280;74888;40.196;44.560;2024-01-06T01:51:34;87279.63;;;7.82;56.22
82953;BME280;74888;40.196;44.560;2024-01-06T01:54:05;87274.63;;;7.78;57.30
82953;BME280;74888;40.196;44.560;2024-01-06T01:56:31;87269.88;;;7.77;56.48
82953;BME280;74888;40.196;44.560;2024-01-06T01:59:09;87277.97;;;7.84;57.07
82953;BME280;74888;40.196;44.560;2024-01-06T02:01:39;87281.34;;;7.90;56.31
82953;BME280;74888;40.196;44.560;2024-01-06T02:04:05;87293.00;;;7.95;56.93
82953;BME280;74888;40.196;44.560;2024-01-06T02:06:31;87299.44;;;7.99;56.84
82953;BME280;74888;40.196;44.560;2024-01-06T02:08:57;87296.84;;;8.05;56.16
82953;BME280;74888;40.196;44.560;2024-01-06T02:11:24;87305.69;;;8.13;55.87
82953;BME280;74888;40.196;44.560;2024-01-06T02:13:49;87306.88;;;8.12;55.66
82953;BME280;74888;40.196;44.560;2024-01-06T02:16:15;87313.25;;;8.05;55.80
82953;BME280;74888;40.196;44.560;2024-01-06T02:18:42;87320.66;;;8.12;55.68
82953;BME280;74888;40.196;44.560;2024-01-06T02:21:08;87324.41;;;8.06;55.71
82953;BME280;74888;40.196;44.560;2024-01-06T02:23:35;87319.38;;;7.97;55.32
82953;BME280;74888;40.196;44.560;2024-01-06T02:26:03;87321.44;;;7.87;56.81
82953;BME280;74888;40.196;44.560;2024-01-06T02:28:29;87328.06;;;7.83;57.03
82953;BME280;74888;40.196;44.560;2024-01-06T02:30:54;87326.41;;;7.80;56.41
82953;BME280;74888;40.196;44.560;2024-01-06T02:33:20;87335.88;;;7.77;56.66
82953;BME280;74888;40.196;44.560;2024-01-06T02:35:48;87334.75;;;7.89;56.69
82953;BME280;74888;40.196;44.560;2024-01-06T02:38:13;87338.03;;;7.79;55.50
82953;BME280;74888;40.196;44.560;2024-01-06T02:40:39;87327.50;;;7.68;56.60
82953;BME280;74888;40.196;44.560;2024-01-06T02:43:05;87323.16;;;7.59;56.02
82953;BME280;74888;40.196;44.560;2024-01-06T02:45:31;87332.41;;;7.55;56.14
82953;BME280;74888;40.196;44.560;2024-01-06T02:47:58;87332.88;;;7.53;55.07
82953;BME280;74888;40.196;44.560;2024-01-06T02:50:24;87329.50;;;7.47;54.39
82953;BME280;74888;40.196;44.560;2024-01-06T02:52:49;87342.66;;;7.32;52.65
82953;BME280;74888;40.196;44.560;2024-01-06T02:55:15;87359.06;;;7.33;52.75
82953;BME280;74888;40.196;44.560;2024-01-06T02:57:41;87362.56;;;7.30;52.27
82953;BME280;74888;40.196;44.560;2024-01-06T03:00:08;87360.84;;;7.21;50.41
82953;BME280;74888;40.196;44.560;2024-01-06T03:02:33;87363.75;;;7.29;51.21
82953;BME280;74888;40.196;44.560;2024-01-06T03:05:01;87368.97;;;7.29;50.22
82953;BME280;74888;40.196;44.560;2024-01-06T03:07:27;87369.66;;;7.24;50.28
82953;BME280;74888;40.196;44.560;2024-01-06T03:09:53;87385.25;;;7.18;49.93
82953;BME280;74888;40.196;44.560;2024-01-06T03:12:22;87377.16;;;7.16;50.98
82953;BME280;74888;40.196;44.560;2024-01-06T03:14:48;87380.50;;;7.17;50.33
82953;BME280;74888;40.196;44.560;2024-01-06T03:17:14;87386.38;;;7.12;51.15
82953;BME280;74888;40.196;44.560;2024-01-06T03:19:40;87388.50;;;7.08;50.87
82953;BME280;74888;40.196;44.560;2024-01-06T03:22:06;87396.97;;;7.03;50.53
82953;BME280;74888;40.196;44.560;2024-01-06T03:24:31;87392.47;;;7.03;51.01
82953;BME280;74888;40.196;44.560;2024-01-06T03:26:57;87398.19;;;7.07;50.47
82953;BME280;74888;40.196;44.560;2024-01-06T03:29:24;87406.22;;;7.04;50.78
82953;BME280;74888;40.196;44.560;2024-01-06T03:31:50;87406.88;;;6.99;50.90
82953;BME280;74888;40.196;44.560;2024-01-06T03:34:15;87409.50;;;6.99;50.86
82953;BME280;74888;40.196;44.560;2024-01-06T03:36:41;87412.91;;;6.85;50.71
82953;BME280;74888;40.196;44.560;2024-01-06T03:39:09;87418.31;;;6.81;51.42
82953;BME280;74888;40.196;44.560;2024-01-06T03:41:36;87421.84;;;6.78;51.34
82953;BME280;74888;40.196;44.560;2024-01-06T03:44:04;87421.75;;;6.73;51.76
82953;BME280;74888;40.196;44.560;2024-01-06T03:46:29;87436.75;;;6.78;51.12
82953;BME280;74888;40.196;44.560;2024-01-06T03:48:56;87455.88;;;6.89;50.99
82953;BME280;74888;40.196;44.560;2024-01-06T03:51:22;87465.84;;;6.91;50.43
82953;BME280;74888;40.196;44.560;2024-01-06T03:53:47;87457.03;;;6.88;51.46
82953;BME280;74888;40.196;44.560;2024-01-06T03:56:13;87465.59;;;6.89;50.66
82953;BME280;74888;40.196;44.560;2024-01-06T03:58:40;87471.06;;;6.91;51.15
82953;BME280;74888;40.196;44.560;2024-01-06T04:01:05;87474.91;;;6.95;51.01
82953;BME280;74888;40.196;44.560;2024-01-06T04:03:31;87477.78;;;6.97;52.04
82953;BME280;74888;40.196;44.560;2024-01-06T04:05:57;87485.88;;;6.99;51.67
82953;BME280;74888;40.196;44.560;2024-01-06T04:08:28;87479.88;;;6.93;51.36
82953;BME280;74888;40.196;44.560;2024-01-06T04:10:54;87497.16;;;6.91;52.02
82953;BME280;74888;40.196;44.560;2024-01-06T04:13:20;87508.56;;;6.93;52.10
82953;BME280;74888;40.196;44.560;2024-01-06T04:15:46;87527.00;;;6.90;52.35
82953;BME280;74888;40.196;44.560;2024-01-06T04:18:11;87533.50;;;6.94;53.04
82953;BME280;74888;40.196;44.560;2024-01-06T04:20:38;87538.75;;;7.00;52.69
82953;BME280;74888;40.196;44.560;2024-01-06T04:23:05;87544.84;;;7.11;52.23
82953;BME280;74888;40.196;44.560;2024-01-06T04:25:30;87540.59;;;7.14;51.72
82953;BME280;74888;40.196;44.560;2024-01-06T04:27:56;87541.25;;;7.09;51.08
82953;BME280;74888;40.196;44.560;2024-01-06T04:30:22;87547.59;;;7.02;51.62
82953;BME280;74888;40.196;44.560;2024-01-06T04:32:47;87550.91;;;7.03;51.65
82953;BME280;74888;40.196;44.560;2024-01-06T04:35:14;87550.38;;;6.99;51.37
82953;BME280;74888;40.196;44.560;2024-01-06T04:37:42;87550.50;;;6.90;51.63
82953;BME280;74888;40.196;44.560;2024-01-06T04:40:08;87552.88;;;6.73;51.85
82953;BME280;74888;40.196;44.560;2024-01-06T04:42:34;87562.00;;;6.63;51.52
82953;BME280;74888;40.196;44.560;2024-01-06T04:45:00;87557.25;;;6.47;52.45
82953;BME280;74888;40.196;44.560;2024-01-06T04:47:27;87561.13;;;6.52;52.80
82953;BME280;74888;40.196;44.560;2024-01-06T04:49:54;87552.75;;;6.48;52.03
82953;BME280;74888;40.196;44.560;2024-01-06T04:52:19;87549.44;;;6.47;52.55
82953;BME280;74888;40.196;44.560;2024-01-06T04:54:45;87564.50;;;6.58;52.24
82953;BME280;74888;40.196;44.560;2024-01-06T04:57:17;87587.44;;;6.68;51.43
82953;BME280;74888;40.196;44.560;2024-01-06T04:59:42;87592.38;;;6.66;51.62
82953;BME280;74888;40.196;44.560;2024-01-06T05:02:08;87594.59;;;6.73;51.01
82953;BME280;74888;40.196;44.560;2024-01-06T05:04:34;87605.78;;;6.74;50.95
82953;BME280;74888;40.196;44.560;2024-01-06T05:07:00;87592.56;;;6.63;50.64
82953;BME280;74888;40.196;44.560;2024-01-06T05:09:25;87595.16;;;6.63;50.99
82953;BME280;74888;40.196;44.560;2024-01-06T05:11:51;87607.22;;;6.60;50.40
82953;BME280;74888;40.196;44.560;2024-01-06T05:14:17;87607.03;;;6.49;50.75
82953;BME280;74888;40.196;44.560;2024-01-06T05:16:42;87613.16;;;6.46;50.52
82953;BME280;74888;40.196;44.560;2024-01-06T05:19:08;87607.94;;;6.46;50.63
82953;BME280;74888;40.196;44.560;2024-01-06T05:21:35;87621.25;;;6.48;49.09
82953;BME280;74888;40.196;44.560;2024-01-06T05:24:02;87616.59;;;6.52;49.68
82953;BME280;74888;40.196;44.560;2024-01-06T05:26:30;87624.03;;;6.59;48.66
82953;BME280;74888;40.196;44.560;2024-01-06T05:28:56;87637.50;;;6.58;50.18
82953;BME280;74888;40.196;44.560;2024-01-06T05:31:22;87645.09;;;6.56;50.36
82953;BME280;74888;40.196;44.560;2024-01-06T05:33:48;87636.81;;;6.57;50.08
82953;BME280;74888;40.196;44.560;2024-01-06T05:36:13;87640.06;;;6.52;49.33
82953;BME280;74888;40.196;44.560;2024-01-06T05:38:39;87632.66;;;6.51;49.62
82953;BME280;74888;40.196;44.560;2024-01-06T05:41:05;87640.69;;;6.47;50.08
82953;BME280;74888;40.196;44.560;2024-01-06T05:43:32;87641.22;;;6.51;49.71
82953;BME280;74888;40.196;44.560;2024-01-06T05:45:58;87639.31;;;6.52;48.68
82953;BME280;74888;40.196;44.560;2024-01-06T05:48:23;87636.88;;;6.63;49.26
82953;BME280;74888;40.196;44.560;2024-01-06T05:50:50;87639.31;;;6.81;48.95
82953;BME280;74888;40.196;44.560;2024-01-06T05:53:17;87652.31;;;6.95;47.42
82953;BME280;74888;40.196;44.560;2024-01-06T05:55:44;87653.75;;;7.11;47.55
82953;BME280;74888;40.196;44.560;2024-01-06T05:58:09;87658.59;;;7.18;46.63
82953;BME280;74888;40.196;44.560;2024-01-06T06:00:35;87648.56;;;7.16;45.54
82953;BME280;74888;40.196;44.560;2024-01-06T06:03:00;87650.34;;;7.25;45.84
82953;BME280;74888;40.196;44.560;2024-01-06T06:05:27;87638.75;;;7.26;45.61
82953;BME280;74888;40.196;44.560;2024-01-06T06:07:53;87644.16;;;7.22;43.86
82953;BME280;74888;40.196;44.560;2024-01-06T06:10:20;87655.34;;;7.23;44.50
82953;BME280;74888;40.196;44.560;2024-01-06T06:12:45;87664.13;;;7.25;42.90
82953;BME280;74888;40.196;44.560;2024-01-06T06:15:12;87674.66;;;7.31;44.93
82953;BME280;74888;40.196;44.560;2024-01-06T06:17:39;87671.22;;;7.39;43.43
82953;BME280;74888;40.196;44.560;2024-01-06T06:20:06;87670.22;;;7.37;42.65
82953;BME280;74888;40.196;44.560;2024-01-06T06:22:32;87679.50;;;7.38;42.26
82953;BME280;74888;40.196;44.560;2024-01-06T06:24:59;87669.84;;;7.44;43.39
82953;BME280;74888;40.196;44.560;2024-01-06T06:27:25;87679.56;;;7.43;44.16
82953;BME280;74888;40.196;44.560;2024-01-06T06:29:54;87686.63;;;7.58;45.08
82953;BME280;74888;40.196;44.560;2024-01-06T06:32:20;87694.16;;;7.70;43.98
82953;BME280;74888;40.196;44.560;2024-01-06T06:34:46;87702.25;;;7.72;44.17
82953;BME280;74888;40.196;44.560;2024-01-06T06:37:13;87705.47;;;7.82;44.03
82953;BME280;74888;40.196;44.560;2024-01-06T06:39:39;87703.72;;;7.93;43.75
82953;BME280;74888;40.196;44.560;2024-01-06T06:42:04;87711.28;;;7.91;44.31
82953;BME280;74888;40.196;44.560;2024-01-06T06:44:30;87712.22;;;7.88;44.18
82953;BME280;74888;40.196;44.560;2024-01-06T06:46:56;87709.22;;;7.95;44.15
82953;BME280;74888;40.196;44.560;2024-01-06T06:49:22;87701.22;;;8.04;43.93
82953;BME280;74888;40.196;44.560;2024-01-06T06:51:48;87710.16;;;8.18;44.76
82953;BME280;74888;40.196;44.560;2024-01-06T06:54:15;87708.41;;;8.29;44.64
82953;BME280;74888;40.196;44.560;2024-01-06T06:56:44;87725.41;;;8.39;43.84
82953;BME280;74888;40.196;44.560;2024-01-06T06:59:10;87728.03;;;8.39;44.29
82953;BME280;74888;40.196;44.560;2024-01-06T07:01:37;87737.78;;;8.39;44.23
82953;BME280;74888;40.196;44.560;2024-01-06T07:04:05;87730.41;;;8.37;44.46
82953;BME280;74888;40.196;44.560;2024-01-06T07:06:33;87729.41;;;8.35;43.01
82953;BME280;74888;40.196;44.560;2024-01-06T07:08:59;87728.94;;;8.36;44.68
82953;BME280;74888;40.196;44.560;2024-01-06T07:11:25;87742.09;;;8.42;44.00
82953;BME280;74888;40.196;44.560;2024-01-06T07:13:51;87728.34;;;8.47;42.90
82953;BME280;74888;40.196;44.560;2024-01-06T07:16:16;87739.94;;;8.40;42.29
82953;BME280;74888;40.196;44.560;2024-01-06T07:18:43;87729.66;;;8.37;42.74
82953;BME280;74888;40.196;44.560;2024-01-06T07:21:09;87730.97;;;8.27;42.75
82953;BME280;74888;40.196;44.560;2024-01-06T07:23:35;87737.63;;;8.28;42.29
82953;BME280;74888;40.196;44.560;2024-01-06T07:26:01;87743.31;;;8.26;41.32
82953;BME280;74888;40.196;44.560;2024-01-06T07:28:32;87746.47;;;8.30;43.83
82953;BME280;74888;40.196;44.560;2024-01-06T07:31:00;87751.13;;;8.41;41.89
82953;BME280;74888;40.196;44.560;2024-01-06T07:33:26;87753.06;;;8.46;43.36
82953;BME280;74888;40.196;44.560;2024-01-06T07:35:51;87750.84;;;8.59;42.86
82953;BME280;74888;40.196;44.560;2024-01-06T07:38:17;87756.84;;;8.65;42.63
82953;BME280;74888;40.196;44.560;2024-01-06T07:40:44;87764.34;;;8.78;41.96
82953;BME280;74888;40.196;44.560;2024-01-06T07:43:10;87755.03;;;8.77;42.24
82953;BME280;74888;40.196;44.560;2024-01-06T07:45:36;87763.56;;;8.71;41.98
82953;BME280;74888;40.196;44.560;2024-01-06T07:48:03;87761.06;;;8.83;43.11
82953;BME280;74888;40.196;44.560;2024-01-06T07:50:28;87750.66;;;8.88;41.04
82953;BME280;74888;40.196;44.560;2024-01-06T07:52:54;87756.13;;;8.90;41.69
82953;BME280;74888;40.196;44.560;2024-01-06T07:55:20;87755.69;;;8.92;41.64
82953;BME280;74888;40.196;44.560;2024-01-06T07:57:47;87752.91;;;9.01;41.26
82953;BME280;74888;40.196;44.560;2024-01-06T08:00:13;87756.25;;;9.01;42.10
82953;BME280;74888;40.196;44.560;2024-01-06T08:02:41;87750.00;;;8.93;42.24
82953;BME280;74888;40.196;44.560;2024-01-06T08:05:08;87748.34;;;8.96;41.66
82953;BME280;74888;40.196;44.560;2024-01-06T08:07:34;87754.91;;;9.11;41.99
82953;BME280;74888;40.196;44.560;2024-01-06T08:10:00;87741.19;;;9.22;42.67
82953;BME280;74888;40.196;44.560;2024-01-06T08:12:26;87748.66;;;9.34;42.73
82953;BME280;74888;40.196;44.560;2024-01-06T08:14:53;87746.34;;;9.42;42.64
82953;BME280;74888;40.196;44.560;2024-01-06T08:17:19;87751.13;;;9.43;41.97
82953;BME280;74888;40.196;44.560;2024-01-06T08:19:45;87739.91;;;9.43;42.46
82953;BME280;74888;40.196;44.560;2024-01-06T08:22:13;87756.34;;;9.43;42.15
82953;BME280;74888;40.196;44.560;2024-01-06T08:24:39;87748.56;;;9.49;42.34
82953;BME280;74888;40.196;44.560;2024-01-06T08:27:05;87754.53;;;9.55;42.24
82953;BME280;74888;40.196;44.560;2024-01-06T08:29:31;87748.16;;;9.61;41.81
82953;BME280;74888;40.196;44.560;2024-01-06T08:31:58;87753.22;;;9.70;41.52
82953;BME280;74888;40.196;44.560;2024-01-06T08:34:23;87757.22;;;9.66;42.92
82953;BME280;74888;40.196;44.560;2024-01-06T08:36:50;87766.38;;;9.81;42.29
82953;BME280;74888;40.196;44.560;2024-01-06T08:39:16;87753.59;;;9.89;42.43
82953;BME280;74888;40.196;44.560;2024-01-06T08:41:42;87751.69;;;9.95;41.78
82953;BME280;74888;40.196;44.560;2024-01-06T08:44:08;87748.66;;;10.02;41.41
82953;BME280;74888;40.196;44.560;2024-01-06T08:46:34;87751.13;;;10.11;41.71
82953;BME280;74888;40.196;44.560;2024-01-06T08:49:00;87748.03;;;10.18;40.77
82953;BME280;74888;40.196;44.560;2024-01-06T08:51:26;87749.72;;;10.21;40.55
82953;BME280;74888;40.196;44.560;2024-01-06T08:53:52;87742.13;;;10.29;40.04
82953;BME280;74888;40.196;44.560;2024-01-06T08:56:18;87747.16;;;10.32;40.74
82953;BME280;74888;40.196;44.560;2024-01-06T08:58:45;87733.81;;;10.36;39.30
82953;BME280;74888;40.196;44.560;2024-01-06T09:01:13;87742.44;;;10.47;39.81
82953;BME280;74888;40.196;44.560;2024-01-06T09:03:41;87741.31;;;10.65;40.04
82953;BME280;74888;40.196;44.560;2024-01-06T09:06:07;87742.06;;;10.76;39.89
82953;BME280;74888;40.196;44.560;2024-01-06T09:08:35;87733.94;;;10.74;39.68
82953;BME280;74888;40.196;44.560;2024-01-06T09:11:01;87729.44;;;10.86;39.24
82953;BME280;74888;40.196;44.560;2024-01-06T09:13:27;87730.16;;;10.97;39.13
82953;BME280;74888;40.196;44.560;2024-01-06T09:15:53;87730.44;;;11.10;38.30
82953;BME280;74888;40.196;44.560;2024-01-06T09:18:20;87733.31;;;11.18;38.08
82953;BME280;74888;40.196;44.560;2024-01-06T09:20:45;87724.94;;;11.19;37.80
82953;BME280;74888;40.196;44.560;2024-01-06T09:23:13;87724.97;;;11.25;38.71
82953;BME280;74888;40.196;44.560;2024-01-06T09:25:39;87724.22;;;11.25;38.04
82953;BME280;74888;40.196;44.560;2024-01-06T09:28:05;87727.34;;;11.23;38.82
82953;BME280;74888;40.196;44.560;2024-01-06T09:30:31;87726.16;;;11.30;39.21
82953;BME280;74888;40.196;44.560;2024-01-06T09:32:57;87718.25;;;11.30;37.72
82953;BME280;74888;40.196;44.560;2024-01-06T09:35:23;87722.09;;;11.23;38.18
82953;BME280;74888;40.196;44.560;2024-01-06T09:37:49;87734.97;;;11.21;36.95
82953;BME280;74888;40.196;44.560;2024-01-06T09:40:22;87722.56;;;11.27;36.65
82953;BME280;74888;40.196;44.560;2024-01-06T09:42:49;87728.31;;;11.26;37.79
82953;BME280;74888;40.196;44.560;2024-01-06T09:45:15;87729.25;;;11.28;38.43
82953;BME280;74888;40.196;44.560;2024-01-06T09:47:45;87728.56;;;11.44;36.51
82953;BME280;74888;40.196;44.560;2024-01-06T09:50:14;87721.88;;;11.54;36.78
82953;BME280;74888;40.196;44.560;2024-01-06T09:52:45;87722.56;;;11.60;37.33
82953;BME280;74888;40.196;44.560;2024-01-06T09:55:18;87715.91;;;11.70;36.42
82953;BME280;74888;40.196;44.560;2024-01-06T09:57:48;87715.41;;;11.83;36.37
82953;BME280;74888;40.196;44.560;2024-01-06T10:00:14;87714.69;;;11.88;34.85
82953;BME280;74888;40.196;44.560;2024-01-06T10:02:43;87712.31;;;11.84;34.65
82953;BME280;74888;40.196;44.560;2024-01-06T10:05:09;87714.91;;;12.01;35.61
82953;BME280;74888;40.196;44.560;2024-01-06T10:07:37;87710.34;;;12.12;35.36
82953;BME280;74888;40.196;44.560;2024-01-06T10:10:03;87724.16;;;12.35;35.49
82953;BME280;74888;40.196;44.560;2024-01-06T10:12:28;87728.19;;;12.42;35.11
82953;BME280;74888;40.196;44.560;2024-01-06T10:14:54;87718.59;;;12.50;33.64
82953;BME280;74888;40.196;44.560;2024-01-06T10:17:20;87706.81;;;12.62;34.11
82953;BME280;74888;40.196;44.560;2024-01-06T10:19:47;87718.25;;;12.70;34.94
82953;BME280;74888;40.196;44.560;2024-01-06T10:22:18;87713.22;;;12.77;32.96
82953;BME280;74888;40.196;44.560;2024-01-06T10:24:43;87712.25;;;12.80;33.63
82953;BME280;74888;40.196;44.560;2024-01-06T10:27:13;87701.19;;;12.87;33.32
82953;BME280;74888;40.196;44.560;2024-01-06T10:29:38;87709.78;;;12.93;33.48
82953;BME280;74888;40.196;44.560;2024-01-06T10:32:05;87708.13;;;12.85;32.26
82953;BME280;74888;40.196;44.560;2024-01-06T10:34:31;87708.47;;;12.70;30.52
82953;BME280;74888;40.196;44.560;2024-01-06T10:36:58;87708.19;;;12.79;32.66
82953;BME280;74888;40.196;44.560;2024-01-06T10:39:26;87706.00;;;12.83;32.63
82953;BME280;74888;40.196;44.560;2024-01-06T10:41:56;87711.97;;;12.84;32.18
82953;BME280;74888;40.196;44.560;2024-01-06T10:44:24;87708.09;;;12.96;31.95
82953;BME280;74888;40.196;44.560;2024-01-06T10:46:53;87714.31;;;13.04;31.25
82953;BME280;74888;40.196;44.560;2024-01-06T10:49:20;87720.53;;;13.01;31.38
82953;BME280;74888;40.196;44.560;2024-01-06T10:51:48;87717.66;;;12.93;31.23
82953;BME280;74888;40.196;44.560;2024-01-06T10:54:15;87724.59;;;12.96;30.80
82953;BME280;74888;40.196;44.560;2024-01-06T10:56:42;87727.47;;;12.98;30.55
82953;BME280;74888;40.196;44.560;2024-01-06T10:59:11;87728.53;;;12.79;28.70
82953;BME280;74888;40.196;44.560;2024-01-06T11:01:37;87722.09;;;12.74;30.59
82953;BME280;74888;40.196;44.560;2024-01-06T11:04:04;87716.84;;;12.69;31.33
82953;BME280;74888;40.196;44.560;2024-01-06T11:06:32;87723.03;;;12.71;30.56
82953;BME280;74888;40.196;44.560;2024-01-06T11:09:11;87721.72;;;12.48;28.45
82953;BME280;74888;40.196;44.560;2024-01-06T11:11:39;87717.47;;;12.23;30.18
82953;BME280;74888;40.196;44.560;2024-01-06T11:16:45;87716.13;;;11.94;31.35
82953;BME280;74888;40.196;44.560;2024-01-06T11:24:53;87711.78;;;11.97;31.45
82953;BME280;74888;40.196;44.560;2024-01-06T11:27:25;87708.47;;;11.91;31.86
82953;BME280;74888;40.196;44.560;2024-01-06T11:29:58;87717.09;;;11.91;31.33
82953;BME280;74888;40.196;44.560;2024-01-06T11:32:33;87724.22;;;12.02;32.45
82953;BME280;74888;40.196;44.560;2024-01-06T11:35:09;87724.19;;;12.18;31.53
82953;BME280;74888;40.196;44.560;2024-01-06T11:37:50;87726.34;;;12.20;32.46
82953;BME280;74888;40.196;44.560;2024-01-06T11:45:25;87734.13;;;12.59;32.09
82953;BME280;74888;40.196;44.560;2024-01-06T11:47:55;87732.91;;;12.54;31.84
82953;BME280;74888;40.196;44.560;2024-01-06T11:50:22;87755.69;;;12.57;33.21
82953;BME280;74888;40.196;44.560;2024-01-06T11:52:49;87754.22;;;12.56;32.87
82953;BME280;74888;40.196;44.560;2024-01-06T11:55:18;87754.22;;;12.62;32.85
82953;BME280;74888;40.196;44.560;2024-01-06T11:57:47;87762.34;;;12.64;32.84
82953;BME280;74888;40.196;44.560;2024-01-06T12:00:13;87772.63;;;12.67;33.61
82953;BME280;74888;40.196;44.560;2024-01-06T12:02:40;87777.16;;;12.72;32.70
82953;BME280;74888;40.196;44.560;2024-01-06T12:05:11;87775.47;;;12.75;32.31
82953;BME280;74888;40.196;44.560;2024-01-06T12:07:40;87780.97;;;12.77;32.39
82953;BME280;74888;40.196;44.560;2024-01-06T12:10:05;87780.25;;;12.76;31.87
82953;BME280;74888;40.196;44.560;2024-01-06T12:12:34;87786.91;;;12.83;30.73
82953;BME280;74888;40.196;44.560;2024-01-06T12:14:59;87789.75;;;13.01;31.40
82953;BME280;74888;40.196;44.560;2024-01-06T12:17:28;87795.72;;;13.07;31.68
82953;BME280;74888;40.196;44.560;2024-01-06T12:19:55;87797.41;;;12.99;30.48
82953;BME280;74888;40.196;44.560;2024-01-06T12:22:21;87813.50;;;12.90;31.07
82953;BME280;74888;40.196;44.560;2024-01-06T12:24:49;87806.31;;;12.91;30.47
82953;BME280;74888;40.196;44.560;2024-01-06T12:27:16;87813.91;;;13.00;31.03
82953;BME280;74888;40.196;44.560;2024-01-06T12:29:43;87812.47;;;13.10;31.85
82953;BME280;74888;40.196;44.560;2024-01-06T12:32:09;87807.94;;;13.10;31.16
82953;BME280;74888;40.196;44.560;2024-01-06T12:34:35;87813.25;;;12.88;30.58
82953;BME280;74888;40.196;44.560;2024-01-06T12:37:01;87821.88;;;12.89;31.44
82953;BME280;74888;40.196;44.560;2024-01-06T12:39:28;87813.97;;;12.83;30.85
82953;BME280;74888;40.196;44.560;2024-01-06T12:41:55;87802.72;;;12.88;30.77
82953;BME280;74888;40.196;44.560;2024-01-06T12:44:21;87813.97;;;12.89;31.06
82953;BME280;74888;40.196;44.560;2024-01-06T12:46:47;87811.78;;;12.98;30.69
82953;BME280;74888;40.196;44.560;2024-01-06T12:49:13;87808.53;;;12.70;30.47
82953;BME280;74888;40.196;44.560;2024-01-06T12:51:39;87798.50;;;12.58;31.11
82953;BME280;74888;40.196;44.560;2024-01-06T12:54:06;87812.13;;;12.62;30.87
82953;BME280;74888;40.196;44.560;2024-01-06T12:56:32;87814.09;;;12.56;30.30
82953;BME280;74888;40.196;44.560;2024-01-06T12:58:57;87811.47;;;12.39;30.33
82953;BME280;74888;40.196;44.560;2024-01-06T13:01:24;87810.53;;;12.36;29.68
82953;BME280;74888;40.196;44.560;2024-01-06T13:03:51;87814.09;;;12.39;31.66
82953;BME280;74888;40.196;44.560;2024-01-06T13:06:19;87814.13;;;12.33;29.76
82953;BME280;74888;40.196;44.560;2024-01-06T13:08:45;87827.75;;;12.26;30.60